createdAt,value
2019-04-22T00:00:24.599Z,0.00
2019-04-22T00:01:25.884Z,0.00
2019-04-22T00:02:20.850Z,0.00
2019-04-22T00:03:27.140Z,0.00
2019-04-22T00:04:33.816Z,0.00
2019-04-22T00:05:42.896Z,0.00
2019-04-22T00:06:44.398Z,0.00
2019-04-22T00:07:41.933Z,0.00
2019-04-22T00:08:43.092Z,0.00
2019-04-22T00:09:49.406Z,0.00
2019-04-22T00:10:46.776Z,0.00
2019-04-22T00:11:48.511Z,0.00
2019-04-22T00:12:48.647Z,0.00
2019-04-22T00:14:00.940Z,0.00
2019-04-22T00:14:42.522Z,0.00
2019-04-22T00:15:41.796Z,0.00
2019-04-22T00:16:53.630Z,0.00
2019-04-22T00:17:53.773Z,0.00
2019-04-22T00:19:01.762Z,0.00
2019-04-22T00:19:55.611Z,0.00
2019-04-22T00:20:50.447Z,0.00
2019-04-22T00:21:48.998Z,0.00
2019-04-22T00:22:44.893Z,0.00
2019-04-22T00:23:45.298Z,0.00
2019-04-22T00:24:45.998Z,0.00
2019-04-22T00:25:53.952Z,0.00
2019-04-22T00:26:50.223Z,0.00
2019-04-22T00:27:50.319Z,0.00
2019-04-22T00:28:49.954Z,0.00
2019-04-22T00:30:47.026Z,0.00
2019-04-22T00:31:47.992Z,0.00
2019-04-22T00:32:44.978Z,0.00
2019-04-22T00:33:45.083Z,0.00
2019-04-22T00:34:42.609Z,0.00
2019-04-22T00:35:41.322Z,0.00
2019-04-22T00:36:43.126Z,0.00
2019-04-22T00:37:54.079Z,0.00
2019-04-22T00:38:44.265Z,0.00
2019-04-22T00:39:46.662Z,0.00
2019-04-22T00:40:45.076Z,0.00
2019-04-22T00:41:51.978Z,0.00
2019-04-22T00:42:47.624Z,0.00
2019-04-22T00:43:49.772Z,0.00
2019-04-22T00:44:45.604Z,0.00
2019-04-22T00:45:48.137Z,0.00
2019-04-22T00:46:46.350Z,0.00
2019-04-22T00:47:46.186Z,0.00
2019-04-22T00:49:05.800Z,0.00
2019-04-22T00:50:14.606Z,0.00
2019-04-22T00:50:58.276Z,0.00
2019-04-22T00:51:52.191Z,0.00
2019-04-22T00:52:49.047Z,0.00
2019-04-22T00:53:48.858Z,0.00
2019-04-22T00:54:55.678Z,0.00
2019-04-22T00:55:46.334Z,0.00
2019-04-22T00:56:47.737Z,0.00
2019-04-22T00:57:46.295Z,0.00
2019-04-22T00:58:45.114Z,0.00
2019-04-22T00:59:50.808Z,0.00
2019-04-22T01:00:44.296Z,0.00
2019-04-22T01:01:50.604Z,0.00
2019-04-22T01:02:49.707Z,0.00
2019-04-22T01:03:50.257Z,0.00
2019-04-22T01:04:47.551Z,0.00
2019-04-22T01:05:46.929Z,0.00
2019-04-22T01:06:48.936Z,0.00
2019-04-22T01:07:43.531Z,0.00
2019-04-22T01:08:53.736Z,0.00
2019-04-22T01:09:56.175Z,0.00
2019-04-22T01:10:45.444Z,0.00
2019-04-22T01:11:44.614Z,0.00
2019-04-22T01:12:44.961Z,0.00
2019-04-22T01:13:46.868Z,0.00
2019-04-22T01:14:47.840Z,0.00
2019-04-22T01:15:47.769Z,0.00
2019-04-22T01:16:50.441Z,0.00
2019-04-22T01:17:46.427Z,0.00
2019-04-22T01:18:45.823Z,0.00
2019-04-22T01:19:52.643Z,0.00
2019-04-22T01:21:44.962Z,0.00
2019-04-22T01:22:46.690Z,0.00
2019-04-22T01:23:43.824Z,0.00
2019-04-22T01:24:38.687Z,0.00
2019-04-22T01:25:42.121Z,0.00
2019-04-22T01:26:41.912Z,0.00
2019-04-22T01:27:41.862Z,0.00
2019-04-22T01:28:34.174Z,0.00
2019-04-22T01:29:35.015Z,0.00
2019-04-22T01:30:32.951Z,0.00
2019-04-22T01:31:26.895Z,0.00
2019-04-22T01:32:27.305Z,0.00
2019-04-22T01:33:29.375Z,0.00
2019-04-22T01:34:36.446Z,0.00
2019-04-22T01:35:37.656Z,0.00
2019-04-22T01:36:45.713Z,0.00
2019-04-22T01:37:43.338Z,0.00
2019-04-22T01:38:45.663Z,0.00
2019-04-22T01:39:50.467Z,0.00
2019-04-22T01:40:53.919Z,0.00
2019-04-22T01:41:55.286Z,0.00
2019-04-22T01:42:50.323Z,0.00
2019-04-22T01:44:45.469Z,0.00
2019-04-22T01:45:49.678Z,0.00
2019-04-22T01:47:03.449Z,0.00
2019-04-22T01:48:05.436Z,0.00
2019-04-22T01:48:47.717Z,0.00
2019-04-22T01:49:50.201Z,0.00
2019-04-22T01:50:44.296Z,0.00
2019-04-22T01:51:59.340Z,0.00
2019-04-22T01:52:53.163Z,0.00
2019-04-22T01:53:50.445Z,0.00
2019-04-22T01:54:52.703Z,0.00
2019-04-22T01:56:46.931Z,0.00
2019-04-22T01:57:47.787Z,0.00
2019-04-22T01:58:38.151Z,0.00
2019-04-22T01:59:40.366Z,0.00
2019-04-22T02:00:49.385Z,0.00
2019-04-22T02:01:49.932Z,0.00
2019-04-22T02:02:48.736Z,0.00
2019-04-22T02:03:46.505Z,0.00
2019-04-22T02:05:10.577Z,0.00
2019-04-22T02:05:44.155Z,0.00
2019-04-22T02:06:48.554Z,0.00
2019-04-22T02:07:49.036Z,0.00
2019-04-22T02:08:53.301Z,0.00
2019-04-22T02:09:53.345Z,0.00
2019-04-22T02:10:54.606Z,0.00
2019-04-22T02:12:45.945Z,0.00
2019-04-22T02:13:49.512Z,0.00
2019-04-22T02:14:44.285Z,0.00
2019-04-22T02:15:52.473Z,0.00
2019-04-22T02:16:49.781Z,0.00
2019-04-22T02:18:10.714Z,0.00
2019-04-22T02:18:53.091Z,0.00
2019-04-22T02:19:53.489Z,0.00
2019-04-22T02:21:01.694Z,0.00
2019-04-22T02:21:48.829Z,0.00
2019-04-22T02:23:00.772Z,0.00
2019-04-22T02:25:51.518Z,0.00
2019-04-22T02:27:09.236Z,0.00
2019-04-22T02:27:54.622Z,0.00
2019-04-22T02:29:01.920Z,0.00
2019-04-22T02:29:50.101Z,0.00
2019-04-22T02:31:16.155Z,0.00
2019-04-22T02:32:17.167Z,0.00
2019-04-22T02:33:11.620Z,0.00
2019-04-22T02:35:01.313Z,0.00
2019-04-22T02:36:11.757Z,0.00
2019-04-22T02:36:54.782Z,0.00
2019-04-22T02:37:45.515Z,0.00
2019-04-22T02:39:57.651Z,0.00
2019-04-22T02:41:52.463Z,0.00
2019-04-22T02:42:58.105Z,0.00
2019-04-22T02:44:53.679Z,0.00
2019-04-22T02:46:26.761Z,0.00
2019-04-22T02:47:07.882Z,0.00
2019-04-22T02:47:49.918Z,0.00
2019-04-22T02:49:53.599Z,0.00
2019-04-22T02:50:54.905Z,0.00
2019-04-22T02:51:47.360Z,0.00
2019-04-22T02:53:19.065Z,0.00
2019-04-22T02:54:55.100Z,0.00
2019-04-22T02:56:08.215Z,0.00
2019-04-22T02:56:48.636Z,0.00
2019-04-22T02:57:49.453Z,0.00
2019-04-22T03:00:01.113Z,0.00
2019-04-22T03:00:58.265Z,0.00
2019-04-22T03:02:10.039Z,0.00
2019-04-22T03:03:09.172Z,0.00
2019-04-22T03:04:06.784Z,0.00
2019-04-22T03:04:52.944Z,0.00
2019-04-22T03:06:15.393Z,0.00
2019-04-22T03:06:42.616Z,0.00
2019-04-22T03:07:58.798Z,0.00
2019-04-22T03:09:12.647Z,0.00
2019-04-22T03:09:52.788Z,0.00
2019-04-22T03:11:15.208Z,0.00
2019-04-22T03:12:02.765Z,0.00
2019-04-22T03:12:53.940Z,0.00
2019-04-22T03:13:59.949Z,0.00
2019-04-22T03:14:54.888Z,0.00
2019-04-22T03:15:59.684Z,0.00
2019-04-22T03:17:51.650Z,0.00
2019-04-22T03:19:02.921Z,0.00
2019-04-22T03:20:58.010Z,0.00
2019-04-22T03:21:54.655Z,0.00
2019-04-22T03:22:59.994Z,0.00
2019-04-22T03:24:08.533Z,0.00
2019-04-22T03:27:47.866Z,0.00
2019-04-22T03:28:54.957Z,0.00
2019-04-22T03:30:26.705Z,0.00
2019-04-22T03:36:18.350Z,0.00
2019-04-22T03:39:15.604Z,0.00
2019-04-22T03:40:07.666Z,5.63
2019-04-22T03:41:16.964Z,5.63
2019-04-22T03:43:09.184Z,5.63
2019-04-22T03:43:14.082Z,5.63
2019-04-22T03:44:10.200Z,5.63
2019-04-22T03:45:01.233Z,5.63
2019-04-22T03:45:51.573Z,5.63
2019-04-22T03:47:02.322Z,11.25
2019-04-22T03:49:12.082Z,11.25
2019-04-22T03:50:03.998Z,11.25
2019-04-22T03:51:01.934Z,11.25
2019-04-22T03:52:07.314Z,16.88
2019-04-22T03:54:04.817Z,16.88
2019-04-22T03:55:05.090Z,16.88
2019-04-22T03:55:59.800Z,22.50
2019-04-22T03:57:55.543Z,22.50
2019-04-22T03:58:58.701Z,28.13
2019-04-22T04:00:55.345Z,28.13
2019-04-22T04:02:15.563Z,33.75
2019-04-22T04:02:54.777Z,33.75
2019-04-22T04:04:01.106Z,33.75
2019-04-22T04:04:50.973Z,39.38
2019-04-22T04:05:54.133Z,39.38
2019-04-22T04:10:01.087Z,50.63
2019-04-22T04:11:59.970Z,50.63
2019-04-22T04:13:01.942Z,56.25
2019-04-22T04:14:05.301Z,56.25
2019-04-22T04:17:54.943Z,67.50
2019-04-22T04:20:05.479Z,73.13
2019-04-22T04:21:14.531Z,73.13
2019-04-22T04:21:48.432Z,78.75
2019-04-22T04:24:19.889Z,90.00
2019-04-22T04:25:08.387Z,106.88
2019-04-22T04:29:06.296Z,191.25
2019-04-22T04:30:59.844Z,241.88
2019-04-22T04:32:07.261Z,258.75
2019-04-22T04:33:05.180Z,275.63
2019-04-22T04:33:53.928Z,286.88
2019-04-22T04:35:54.835Z,326.25
2019-04-22T04:37:07.436Z,337.50
2019-04-22T04:39:02.940Z,376.88
2019-04-22T04:40:04.759Z,388.13
2019-04-22T04:42:07.304Z,416.25
2019-04-22T04:42:54.304Z,427.50
2019-04-22T04:44:06.174Z,455.63
2019-04-22T04:45:11.795Z,455.63
2019-04-22T04:45:59.475Z,466.88
2019-04-22T04:49:58.457Z,472.50
2019-04-22T04:51:07.766Z,466.88
2019-04-22T04:52:19.770Z,472.50
2019-04-22T04:54:08.703Z,472.50
2019-04-22T04:54:59.430Z,478.13
2019-04-22T04:55:53.143Z,489.38
2019-04-22T04:56:56.618Z,500.63
2019-04-22T04:58:03.984Z,511.88
2019-04-22T04:59:05.694Z,528.75
2019-04-22T05:00:26.197Z,540.00
2019-04-22T05:00:58.032Z,556.88
2019-04-22T05:01:56.037Z,573.75
2019-04-22T05:03:00.559Z,590.63
2019-04-22T05:04:04.535Z,601.88
2019-04-22T05:05:10.487Z,613.13
2019-04-22T05:07:05.771Z,630.00
2019-04-22T05:07:56.497Z,646.88
2019-04-22T05:09:15.059Z,658.13
2019-04-22T05:10:03.881Z,675.00
2019-04-22T05:11:00.546Z,675.00
2019-04-22T05:13:01.899Z,708.75
2019-04-22T05:13:57.654Z,731.25
2019-04-22T05:14:55.133Z,759.38
2019-04-22T05:16:10.612Z,781.88
2019-04-22T05:16:54.645Z,793.13
2019-04-22T05:17:57.990Z,798.75
2019-04-22T05:19:02.523Z,821.25
2019-04-22T05:20:00.961Z,843.75
2019-04-22T05:21:06.806Z,866.25
2019-04-22T05:21:55.983Z,900.00
2019-04-22T05:22:51.042Z,928.13
2019-04-22T05:23:54.602Z,939.38
2019-04-22T05:24:56.884Z,950.63
2019-04-22T05:25:51.238Z,967.50
2019-04-22T05:27:08.682Z,978.75
2019-04-22T05:28:07.584Z,995.63
2019-04-22T05:28:49.962Z,1001.25
2019-04-22T05:30:45.993Z,1012.50
2019-04-22T05:31:53.494Z,1023.75
2019-04-22T05:32:52.158Z,1023.75
2019-04-22T05:33:48.416Z,1035.00
2019-04-22T05:34:48.091Z,1029.38
2019-04-22T05:35:46.426Z,1029.38
2019-04-22T05:36:48.233Z,1040.63
2019-04-22T05:39:53.200Z,1040.63
2019-04-22T05:40:51.509Z,1046.25
2019-04-22T05:41:48.285Z,1051.88
2019-04-22T05:42:51.260Z,1057.50
2019-04-22T05:43:50.215Z,1051.88
2019-04-22T05:44:52.837Z,1057.50
2019-04-22T05:45:56.330Z,1063.13
2019-04-22T05:46:49.844Z,1068.75
2019-04-22T05:47:52.267Z,1068.75
2019-04-22T05:48:53.537Z,1068.75
2019-04-22T05:49:48.329Z,1074.38
2019-04-22T05:50:54.807Z,1068.75
2019-04-22T05:51:48.544Z,1074.38
2019-04-22T05:52:49.876Z,1080.00
2019-04-22T05:53:49.474Z,1074.38
2019-04-22T05:54:50.534Z,1080.00
2019-04-22T05:55:48.898Z,1080.00
2019-04-22T05:57:03.939Z,1080.00
2019-04-22T05:57:51.019Z,1080.00
2019-04-22T05:58:53.225Z,1074.38
2019-04-22T05:59:52.206Z,1068.75
2019-04-22T06:01:11.902Z,1063.13
2019-04-22T06:02:16.399Z,1057.50
2019-04-22T06:02:53.550Z,1051.88
2019-04-22T06:03:53.119Z,1029.38
2019-04-22T06:04:54.971Z,1023.75
2019-04-22T06:05:47.263Z,1029.38
2019-04-22T06:06:51.596Z,1029.38
2019-04-22T06:07:47.297Z,1023.75
2019-04-22T06:08:51.257Z,1023.75
2019-04-22T06:09:49.248Z,1018.13
2019-04-22T06:10:55.798Z,1001.25
2019-04-22T06:11:40.607Z,995.63
2019-04-22T06:12:43.385Z,984.38
2019-04-22T06:13:46.134Z,978.75
2019-04-22T06:14:47.915Z,967.50
2019-04-22T06:15:49.659Z,956.25
2019-04-22T06:16:50.261Z,945.00
2019-04-22T06:17:55.716Z,922.50
2019-04-22T06:18:52.739Z,905.63
2019-04-22T06:19:55.930Z,894.38
2019-04-22T06:20:56.488Z,871.88
2019-04-22T06:22:07.100Z,849.38
2019-04-22T06:22:51.014Z,821.25
2019-04-22T06:23:54.661Z,804.38
2019-04-22T06:24:53.872Z,770.63
2019-04-22T06:26:10.040Z,736.88
2019-04-22T06:27:08.298Z,697.50
2019-04-22T06:28:00.266Z,669.38
2019-04-22T06:29:46.333Z,590.63
2019-04-22T06:30:50.295Z,545.63
2019-04-22T06:32:11.622Z,511.88
2019-04-22T06:32:51.769Z,472.50
2019-04-22T06:33:54.457Z,433.13
2019-04-22T06:34:48.277Z,405.00
2019-04-22T06:35:50.111Z,365.63
2019-04-22T06:36:51.113Z,331.88
2019-04-22T06:38:14.559Z,286.88
2019-04-22T06:38:46.999Z,253.13
2019-04-22T06:39:47.756Z,241.88
2019-04-22T06:40:59.686Z,236.25
2019-04-22T06:42:00.961Z,230.63
2019-04-22T06:42:52.151Z,230.63
2019-04-22T06:43:56.166Z,236.25
2019-04-22T06:44:56.389Z,230.63
2019-04-22T06:45:43.555Z,230.63
2019-04-22T06:48:47.970Z,230.63
2019-04-22T06:49:48.281Z,230.63
2019-04-22T06:50:47.558Z,230.63
2019-04-22T06:52:08.736Z,230.63
2019-04-22T06:52:55.603Z,230.63
2019-04-22T06:53:49.387Z,230.63
2019-04-22T06:54:48.912Z,230.63
2019-04-22T06:56:48.479Z,236.25
2019-04-22T06:57:52.722Z,236.25
2019-04-22T06:58:47.744Z,230.63
2019-04-22T06:59:55.374Z,230.63
2019-04-22T07:00:44.494Z,230.63
2019-04-22T07:01:48.612Z,230.63
2019-04-22T07:03:11.007Z,230.63
2019-04-22T07:04:55.214Z,230.63
2019-04-22T07:05:46.375Z,230.63
2019-04-22T07:06:56.525Z,230.63
2019-04-22T07:07:54.984Z,230.63
2019-04-22T07:09:14.401Z,230.63
2019-04-22T07:10:49.071Z,230.63
2019-04-22T07:11:51.484Z,230.63
2019-04-22T07:12:48.722Z,230.63
2019-04-22T07:13:54.858Z,230.63
2019-04-22T07:14:48.878Z,230.63
2019-04-22T07:15:56.326Z,225.00
2019-04-22T07:16:52.516Z,225.00
2019-04-22T07:17:52.240Z,225.00
2019-04-22T07:18:48.729Z,225.00
2019-04-22T07:20:04.059Z,225.00
2019-04-22T07:20:51.314Z,225.00
2019-04-22T07:21:53.826Z,225.00
2019-04-22T07:24:21.220Z,225.00
2019-04-22T07:25:45.152Z,225.00
2019-04-22T07:26:54.381Z,225.00
2019-04-22T07:27:46.950Z,219.38
2019-04-22T07:28:49.017Z,219.38
2019-04-22T07:29:55.333Z,219.38
2019-04-22T07:30:53.415Z,219.38
2019-04-22T07:31:54.713Z,219.38
2019-04-22T07:33:12.660Z,219.38
2019-04-22T07:34:52.285Z,219.38
2019-04-22T07:37:09.564Z,219.38
2019-04-22T07:38:42.819Z,213.75
2019-04-22T07:39:45.389Z,213.75
2019-04-22T07:40:51.913Z,213.75
2019-04-22T07:41:51.364Z,213.75
2019-04-22T07:42:48.149Z,213.75
2019-04-22T07:44:51.181Z,213.75
2019-04-22T07:45:49.182Z,213.75
2019-04-22T07:47:00.834Z,213.75
2019-04-22T07:47:52.426Z,213.75
2019-04-22T07:48:51.816Z,213.75
2019-04-22T07:49:50.873Z,213.75
2019-04-22T07:51:49.840Z,213.75
2019-04-22T07:52:45.013Z,213.75
2019-04-22T07:53:48.993Z,213.75
2019-04-22T07:54:53.062Z,213.75
2019-04-22T07:55:47.526Z,213.75
2019-04-22T07:56:55.986Z,213.75
2019-04-22T07:58:05.336Z,213.75
2019-04-22T07:58:51.783Z,208.13
2019-04-22T07:59:49.067Z,213.75
2019-04-22T08:00:53.024Z,208.13
2019-04-22T08:01:53.718Z,213.75
2019-04-22T08:02:50.387Z,208.13
2019-04-22T08:03:58.689Z,208.13
2019-04-22T08:04:58.034Z,208.13
2019-04-22T08:05:58.858Z,208.13
2019-04-22T08:06:52.802Z,208.13
2019-04-22T08:07:52.151Z,208.13
2019-04-22T08:08:58.410Z,208.13
2019-04-22T08:10:49.957Z,208.13
2019-04-22T08:12:20.234Z,208.13
2019-04-22T08:12:55.794Z,208.13
2019-04-22T08:13:48.119Z,208.13
2019-04-22T08:15:56.908Z,208.13
2019-04-22T08:16:51.831Z,208.13
2019-04-22T08:18:04.971Z,208.13
2019-04-22T08:18:46.001Z,202.50
2019-04-22T08:19:53.166Z,202.50
2019-04-22T08:20:52.059Z,202.50
2019-04-22T08:21:52.202Z,202.50
2019-04-22T08:22:56.088Z,202.50
2019-04-22T08:23:50.891Z,202.50
2019-04-22T08:24:51.444Z,202.50
2019-04-22T08:25:47.456Z,196.88
2019-04-22T08:26:56.444Z,196.88
2019-04-22T08:27:51.897Z,196.88
2019-04-22T08:28:53.299Z,196.88
2019-04-22T08:29:58.700Z,196.88
2019-04-22T08:32:05.120Z,196.88
2019-04-22T08:34:47.588Z,191.25
2019-04-22T08:36:12.002Z,191.25
2019-04-22T08:37:12.012Z,191.25
2019-04-22T08:37:51.105Z,191.25
2019-04-22T08:38:53.920Z,191.25
2019-04-22T08:39:49.972Z,191.25
2019-04-22T08:40:58.081Z,191.25
2019-04-22T08:41:48.186Z,191.25
2019-04-22T08:42:55.502Z,191.25
2019-04-22T08:43:57.710Z,196.88
2019-04-22T08:45:09.188Z,191.25
2019-04-22T08:45:54.624Z,196.88
2019-04-22T08:46:57.737Z,196.88
2019-04-22T08:47:50.557Z,191.25
2019-04-22T08:48:55.681Z,191.25
2019-04-22T08:49:56.977Z,191.25
2019-04-22T08:50:51.928Z,191.25
2019-04-22T08:51:49.057Z,191.25
2019-04-22T08:52:48.397Z,191.25
2019-04-22T08:53:57.221Z,191.25
2019-04-22T08:54:53.668Z,191.25
2019-04-22T08:55:59.557Z,191.25
2019-04-22T08:58:09.155Z,191.25
2019-04-22T08:58:57.384Z,191.25
2019-04-22T08:59:49.038Z,191.25
2019-04-22T09:01:04.618Z,191.25
2019-04-22T09:01:46.868Z,191.25
2019-04-22T09:02:53.993Z,191.25
2019-04-22T09:03:52.675Z,191.25
2019-04-22T09:04:48.052Z,191.25
2019-04-22T09:07:59.787Z,191.25
2019-04-22T09:08:58.538Z,191.25
2019-04-22T09:09:50.774Z,191.25
2019-04-22T09:10:49.007Z,191.25
2019-04-22T09:11:57.737Z,191.25
2019-04-22T09:12:57.617Z,191.25
2019-04-22T09:14:05.876Z,191.25
2019-04-22T09:14:47.246Z,191.25
2019-04-22T09:15:53.706Z,191.25
2019-04-22T09:16:48.301Z,191.25
2019-04-22T09:18:08.451Z,191.25
2019-04-22T09:18:48.575Z,191.25
2019-04-22T09:19:47.886Z,191.25
2019-04-22T09:21:04.271Z,191.25
2019-04-22T09:21:56.398Z,191.25
2019-04-22T09:22:56.963Z,191.25
2019-04-22T09:23:53.930Z,191.25
2019-04-22T09:24:46.911Z,191.25
2019-04-22T09:25:51.183Z,191.25
2019-04-22T09:26:50.519Z,191.25
2019-04-22T09:27:53.684Z,191.25
2019-04-22T09:28:52.276Z,191.25
2019-04-22T09:29:55.530Z,191.25
2019-04-22T09:30:56.917Z,191.25
2019-04-22T09:31:53.603Z,191.25
2019-04-22T09:32:59.523Z,191.25
2019-04-22T09:33:51.496Z,191.25
2019-04-22T09:34:51.392Z,191.25
2019-04-22T09:35:52.417Z,191.25
2019-04-22T09:36:50.251Z,191.25
2019-04-22T09:37:57.458Z,191.25
2019-04-22T09:38:46.796Z,191.25
2019-04-22T09:41:10.109Z,191.25
2019-04-22T09:41:51.097Z,191.25
2019-04-22T09:42:51.717Z,191.25
2019-04-22T09:43:52.143Z,191.25
2019-04-22T09:44:53.347Z,185.63
2019-04-22T09:45:51.099Z,185.63
2019-04-22T09:47:56.737Z,185.63
2019-04-22T09:48:51.874Z,185.63
2019-04-22T09:49:56.708Z,185.63
2019-04-22T09:50:47.941Z,185.63
2019-04-22T09:51:56.977Z,185.63
2019-04-22T09:52:53.218Z,185.63
2019-04-22T09:55:55.608Z,185.63
2019-04-22T09:56:51.743Z,185.63
2019-04-22T09:57:50.913Z,185.63
2019-04-22T09:58:52.361Z,185.63
2019-04-22T09:59:58.003Z,185.63
2019-04-22T10:01:00.198Z,185.63
2019-04-22T10:01:59.623Z,185.63
2019-04-22T10:02:59.309Z,185.63
2019-04-22T10:03:56.310Z,185.63
2019-04-22T10:04:55.214Z,185.63
2019-04-22T10:06:06.174Z,185.63
2019-04-22T10:06:44.336Z,185.63
2019-04-22T10:07:52.507Z,185.63
2019-04-22T10:09:02.079Z,185.63
2019-04-22T10:09:59.749Z,185.63
2019-04-22T10:11:00.801Z,180.00
2019-04-22T10:11:51.090Z,180.00
2019-04-22T10:12:46.806Z,180.00
2019-04-22T10:13:53.593Z,180.00
2019-04-22T10:14:49.264Z,180.00
2019-04-22T10:15:59.020Z,180.00
2019-04-22T10:16:51.433Z,180.00
2019-04-22T10:17:54.498Z,180.00
2019-04-22T10:18:54.459Z,180.00
2019-04-22T10:20:53.866Z,180.00
2019-04-22T10:21:50.134Z,180.00
2019-04-22T10:22:53.259Z,180.00
2019-04-22T10:23:53.519Z,180.00
2019-04-22T10:24:53.216Z,180.00
2019-04-22T10:25:53.792Z,180.00
2019-04-22T10:26:54.951Z,180.00
2019-04-22T10:27:59.927Z,180.00
2019-04-22T10:28:53.118Z,180.00
2019-04-22T10:29:54.125Z,180.00
2019-04-22T10:31:49.753Z,180.00
2019-04-22T10:32:47.581Z,180.00
2019-04-22T10:33:40.904Z,180.00
2019-04-22T10:34:34.997Z,180.00
2019-04-22T10:35:28.696Z,180.00
2019-04-22T10:36:25.707Z,180.00
2019-04-22T10:37:25.782Z,180.00
2019-04-22T10:38:26.465Z,180.00
2019-04-22T10:39:37.880Z,180.00
2019-04-22T10:40:25.748Z,180.00
2019-04-22T10:41:26.324Z,180.00
2019-04-22T10:42:25.515Z,180.00
2019-04-22T10:43:25.523Z,180.00
2019-04-22T10:44:26.875Z,180.00
2019-04-22T10:45:26.084Z,180.00
2019-04-22T10:46:26.362Z,180.00
2019-04-22T10:47:25.771Z,180.00
2019-04-22T10:48:26.187Z,180.00
2019-04-22T10:49:26.550Z,180.00
2019-04-22T10:50:25.699Z,180.00
2019-04-22T10:51:26.569Z,180.00
2019-04-22T10:52:25.696Z,180.00
2019-04-22T10:53:25.803Z,180.00
2019-04-22T10:54:25.642Z,180.00
2019-04-22T10:55:25.642Z,180.00
2019-04-22T10:56:25.606Z,180.00
2019-04-22T10:57:25.683Z,180.00
2019-04-22T10:58:26.645Z,180.00
2019-04-22T10:59:26.867Z,180.00
2019-04-22T11:00:25.621Z,180.00
2019-04-22T11:01:25.731Z,180.00
2019-04-22T11:02:25.709Z,180.00
2019-04-22T11:03:28.043Z,180.00
2019-04-22T11:04:25.964Z,180.00
2019-04-22T11:05:26.182Z,180.00
2019-04-22T11:06:25.676Z,180.00
2019-04-22T11:07:36.328Z,180.00
2019-04-22T11:08:35.027Z,180.00
2019-04-22T11:09:26.960Z,180.00
2019-04-22T11:10:41.222Z,180.00
2019-04-22T11:11:37.510Z,180.00
2019-04-22T11:12:30.000Z,180.00
2019-04-22T11:13:26.248Z,180.00
2019-04-22T11:14:26.593Z,180.00
2019-04-22T11:15:26.597Z,180.00
2019-04-22T11:16:25.792Z,180.00
2019-04-22T11:17:26.077Z,180.00
2019-04-22T11:18:25.886Z,180.00
2019-04-22T11:19:25.790Z,185.63
2019-04-22T11:20:26.033Z,180.00
2019-04-22T11:21:25.855Z,185.63
2019-04-22T11:22:31.253Z,185.63
2019-04-22T11:23:27.021Z,185.63
2019-04-22T11:24:26.679Z,185.63
2019-04-22T11:25:25.885Z,185.63
2019-04-22T11:26:26.002Z,185.63
2019-04-22T11:27:25.915Z,185.63
2019-04-22T11:28:27.313Z,185.63
2019-04-22T11:29:25.897Z,185.63
2019-04-22T11:30:28.079Z,185.63
2019-04-22T11:31:26.446Z,185.63
2019-04-22T11:32:26.622Z,185.63
2019-04-22T11:33:26.741Z,185.63
2019-04-22T11:34:26.936Z,185.63
2019-04-22T11:35:25.932Z,185.63
2019-04-22T11:36:30.157Z,185.63
2019-04-22T11:37:25.934Z,185.63
2019-04-22T11:38:26.792Z,185.63
2019-04-22T11:39:28.977Z,185.63
2019-04-22T11:40:35.730Z,185.63
2019-04-22T11:41:25.959Z,185.63
2019-04-22T11:42:26.041Z,185.63
2019-04-22T11:43:26.225Z,185.63
2019-04-22T11:44:27.518Z,185.63
2019-04-22T11:45:27.077Z,185.63
2019-04-22T11:46:27.237Z,185.63
2019-04-22T11:47:27.406Z,185.63
2019-04-22T11:48:27.047Z,185.63
2019-04-22T11:49:26.015Z,185.63
2019-04-22T11:50:26.309Z,185.63
2019-04-22T11:51:27.478Z,185.63
2019-04-22T11:52:26.933Z,185.63
2019-04-22T11:53:26.991Z,185.63
2019-04-22T11:54:26.084Z,185.63
2019-04-22T11:55:26.846Z,191.25
2019-04-22T11:56:27.141Z,191.25
2019-04-22T11:57:26.104Z,191.25
2019-04-22T11:58:26.593Z,185.63
2019-04-22T11:59:26.849Z,185.63
2019-04-22T12:00:27.036Z,185.63
2019-04-22T12:01:26.679Z,185.63
2019-04-22T12:02:27.170Z,185.63
2019-04-22T12:03:27.154Z,185.63
2019-04-22T12:04:27.569Z,185.63
2019-04-22T12:05:26.156Z,185.63
2019-04-22T12:06:26.347Z,185.63
2019-04-22T12:07:26.729Z,185.63
2019-04-22T12:08:27.101Z,185.63
2019-04-22T12:09:26.214Z,185.63
2019-04-22T12:10:34.672Z,185.63
2019-04-22T12:11:26.337Z,185.63
2019-04-22T12:12:27.722Z,185.63
2019-04-22T12:13:26.337Z,185.63
2019-04-22T12:14:27.655Z,185.63
2019-04-22T12:15:26.787Z,185.63
2019-04-22T12:16:27.380Z,185.63
2019-04-22T12:17:26.550Z,185.63
2019-04-22T12:18:27.106Z,185.63
2019-04-22T12:19:27.124Z,185.63
2019-04-22T12:20:27.563Z,185.63
2019-04-22T12:21:26.687Z,185.63
2019-04-22T12:22:26.956Z,185.63
2019-04-22T12:23:27.311Z,185.63
2019-04-22T12:24:26.315Z,185.63
2019-04-22T12:25:34.698Z,185.63
2019-04-22T12:26:26.983Z,185.63
2019-04-22T12:27:28.779Z,185.63
2019-04-22T12:28:26.836Z,185.63
2019-04-22T12:29:26.942Z,185.63
2019-04-22T12:30:27.775Z,185.63
2019-04-22T12:31:27.259Z,185.63
2019-04-22T12:32:27.402Z,185.63
2019-04-22T12:33:27.736Z,185.63
2019-04-22T12:34:26.416Z,185.63
2019-04-22T12:35:26.407Z,185.63
2019-04-22T12:36:26.652Z,185.63
2019-04-22T12:37:35.605Z,185.63
2019-04-22T12:38:27.437Z,185.63
2019-04-22T12:39:27.476Z,185.63
2019-04-22T12:40:37.263Z,185.63
2019-04-22T12:41:27.682Z,185.63
2019-04-22T12:42:27.093Z,185.63
2019-04-22T12:43:27.814Z,185.63
2019-04-22T12:44:26.643Z,185.63
2019-04-22T12:45:26.690Z,185.63
2019-04-22T12:46:28.058Z,185.63
2019-04-22T12:47:26.518Z,185.63
2019-04-22T12:48:27.479Z,185.63
2019-04-22T12:49:27.934Z,185.63
2019-04-22T12:50:31.846Z,185.63
2019-04-22T12:51:27.197Z,185.63
2019-04-22T12:52:34.211Z,185.63
2019-04-22T12:53:28.003Z,185.63
2019-04-22T12:54:26.933Z,185.63
2019-04-22T12:55:27.864Z,185.63
2019-04-22T12:56:27.817Z,185.63
2019-04-22T12:57:26.642Z,185.63
2019-04-22T12:58:27.644Z,185.63
2019-04-22T12:59:27.944Z,185.63
2019-04-22T13:00:26.693Z,185.63
2019-04-22T13:01:26.883Z,185.63
2019-04-22T13:02:27.030Z,185.63
2019-04-22T13:03:26.696Z,185.63
2019-04-22T13:04:27.976Z,185.63
2019-04-22T13:05:26.973Z,185.63
2019-04-22T13:06:27.885Z,185.63
2019-04-22T13:07:26.706Z,185.63
2019-04-22T13:08:27.614Z,185.63
2019-04-22T13:09:27.481Z,180.00
2019-04-22T13:10:39.084Z,180.00
2019-04-22T13:11:30.803Z,180.00
2019-04-22T13:12:26.778Z,180.00
2019-04-22T13:13:27.175Z,180.00
2019-04-22T13:14:27.388Z,185.63
2019-04-22T13:15:26.830Z,185.63
2019-04-22T13:16:27.048Z,185.63
2019-04-22T13:17:27.199Z,185.63
2019-04-22T13:18:35.279Z,185.63
2019-04-22T13:19:28.260Z,185.63
2019-04-22T13:20:28.070Z,185.63
2019-04-22T13:21:26.976Z,185.63
2019-04-22T13:22:27.061Z,185.63
2019-04-22T13:23:27.555Z,185.63
2019-04-22T13:24:27.982Z,185.63
2019-04-22T13:25:28.820Z,185.63
2019-04-22T13:26:27.236Z,185.63
2019-04-22T13:27:26.934Z,185.63
2019-04-22T13:28:27.263Z,185.63
2019-04-22T13:29:27.610Z,185.63
2019-04-22T13:30:28.294Z,185.63
2019-04-22T13:31:26.975Z,185.63
2019-04-22T13:32:27.033Z,185.63
2019-04-22T13:33:28.499Z,185.63
2019-04-22T13:34:34.865Z,185.63
2019-04-22T13:35:28.095Z,185.63
2019-04-22T13:36:28.276Z,185.63
2019-04-22T13:37:28.492Z,185.63
2019-04-22T13:38:27.101Z,191.25
2019-04-22T13:39:27.216Z,185.63
2019-04-22T13:40:26.994Z,185.63
2019-04-22T13:41:35.725Z,185.63
2019-04-22T13:42:27.575Z,185.63
2019-04-22T13:43:27.225Z,185.63
2019-04-22T13:44:28.067Z,185.63
2019-04-22T13:45:27.642Z,185.63
2019-04-22T13:46:31.092Z,185.63
2019-04-22T13:47:42.303Z,185.63
2019-04-22T13:48:46.288Z,191.25
2019-04-22T13:49:59.350Z,191.25
2019-04-22T13:51:01.007Z,191.25
2019-04-22T13:52:00.936Z,191.25
2019-04-22T13:53:18.336Z,191.25
2019-04-22T13:55:13.668Z,185.63
2019-04-22T13:55:51.502Z,185.63
2019-04-22T13:56:50.622Z,185.63
2019-04-22T13:57:45.400Z,185.63
2019-04-22T13:58:42.777Z,185.63
2019-04-22T13:59:33.455Z,185.63
2019-04-22T14:00:28.397Z,185.63
2019-04-22T14:01:28.326Z,185.63
2019-04-22T14:02:28.494Z,185.63
2019-04-22T14:03:28.902Z,185.63